createdAt,value
2023-02-28T00:00:38.680Z,93.67
2023-02-28T00:03:05.716Z,94.08
2023-02-28T00:05:32.868Z,94.17
2023-02-28T00:07:59.696Z,94.02
2023-02-28T00:10:31.711Z,93.90
2023-02-28T00:13:07.440Z,94.41
2023-02-28T00:15:35.124Z,94.92
2023-02-28T00:18:02.281Z,94.60
2023-02-28T00:20:29.066Z,95.64
2023-02-28T00:22:56.340Z,94.91
2023-02-28T00:25:26.168Z,95.40
2023-02-28T00:27:53.682Z,95.72
2023-02-28T00:30:23.744Z,95.23
2023-02-28T00:32:51.622Z,95.36
2023-02-28T00:35:19.011Z,95.63
2023-02-28T00:37:45.760Z,96.18
2023-02-28T00:40:13.403Z,96.92
2023-02-28T00:42:41.144Z,97.11
2023-02-28T00:45:09.431Z,96.98
2023-02-28T00:47:38.518Z,97.13
2023-02-28T00:50:06.510Z,97.15
2023-02-28T00:52:33.207Z,97.23
2023-02-28T00:54:59.860Z,98.18
2023-02-28T00:57:27.299Z,97.45
2023-02-28T00:59:55.322Z,97.70
2023-02-28T01:02:23.430Z,97.19
2023-02-28T01:04:52.860Z,96.95
2023-02-28T01:07:19.542Z,97.09
2023-02-28T01:09:46.881Z,97.04
2023-02-28T01:12:13.663Z,96.78
2023-02-28T01:14:40.385Z,96.76
2023-02-28T01:17:07.317Z,96.44
2023-02-28T01:19:34.445Z,97.21
2023-02-28T01:22:06.260Z,97.06
2023-02-28T01:24:34.565Z,97.93
2023-02-28T01:27:01.335Z,97.95
2023-02-28T01:29:28.041Z,98.00
2023-02-28T01:31:54.705Z,97.36
2023-02-28T01:34:21.334Z,97.40
2023-02-28T01:36:47.970Z,97.17
2023-02-28T01:39:14.675Z,97.21
2023-02-28T01:41:41.586Z,97.64
2023-02-28T01:44:46.624Z,97.93
2023-02-28T01:47:13.344Z,97.95
2023-02-28T01:49:40.508Z,97.59
2023-02-28T01:52:08.630Z,96.83
2023-02-28T01:54:35.961Z,97.60
2023-02-28T01:57:15.977Z,97.35
2023-02-28T01:59:52.616Z,97.16
2023-02-28T02:02:25.719Z,97.17
2023-02-28T02:05:17.678Z,97.73
2023-02-28T02:07:49.345Z,97.54
2023-02-28T02:10:15.912Z,96.92
2023-02-28T02:13:18.204Z,97.32
2023-02-28T02:16:03.598Z,97.58
2023-02-28T02:18:59.782Z,97.44
2023-02-28T02:21:45.152Z,97.50
2023-02-28T02:24:25.689Z,97.10
2023-02-28T02:27:19.017Z,97.48
2023-02-28T02:30:14.905Z,97.50
2023-02-28T02:33:04.515Z,97.73
2023-02-28T02:36:09.464Z,98.00
2023-02-28T02:38:48.674Z,97.97
2023-02-28T02:41:35.676Z,97.69
2023-02-28T02:44:11.638Z,97.18
2023-02-28T02:46:43.329Z,97.42
2023-02-28T02:49:15.972Z,97.37
2023-02-28T02:51:45.348Z,97.19
2023-02-28T02:54:38.488Z,96.74
2023-02-28T02:57:10.328Z,97.21
2023-02-28T02:59:40.523Z,97.52
2023-02-28T03:02:11.380Z,97.71
2023-02-28T03:04:49.605Z,97.25
2023-02-28T03:07:16.187Z,96.83
2023-02-28T03:09:52.488Z,97.76
2023-02-28T03:12:20.648Z,97.62
2023-02-28T03:14:54.510Z,98.13
2023-02-28T03:17:26.381Z,99.63
2023-02-28T03:20:09.025Z,99.02
2023-02-28T03:23:00.149Z,98.77
2023-02-28T03:25:44.099Z,98.74
2023-02-28T03:28:20.805Z,99.36
2023-02-28T03:31:15.428Z,99.02
2023-02-28T03:33:55.674Z,98.71
2023-02-28T03:36:28.073Z,98.35
2023-02-28T03:39:07.568Z,98.46
2023-02-28T03:41:39.849Z,98.82
2023-02-28T03:44:30.410Z,99.11
2023-02-28T03:47:06.167Z,98.93
2023-02-28T03:49:41.585Z,98.75
2023-02-28T03:52:09.367Z,99.11
2023-02-28T03:54:46.873Z,98.38
2023-02-28T03:57:24.784Z,99.22
2023-02-28T03:59:58.129Z,99.58
2023-02-28T04:02:25.031Z,99.01
2023-02-28T04:04:52.243Z,99.48
2023-02-28T04:07:19.047Z,99.56
2023-02-28T04:09:45.835Z,99.36
2023-02-28T04:12:12.563Z,99.55
2023-02-28T04:14:39.395Z,99.05
2023-02-28T04:17:06.115Z,98.91
2023-02-28T04:19:32.986Z,99.39
2023-02-28T04:21:59.728Z,99.46
2023-02-28T04:24:29.036Z,99.77
2023-02-28T04:26:57.966Z,99.29
2023-02-28T04:29:27.937Z,99.41
2023-02-28T04:31:57.235Z,99.40
2023-02-28T04:34:24.604Z,99.41
2023-02-28T04:37:06.098Z,99.98
2023-02-28T04:39:38.806Z,99.58
2023-02-28T04:42:05.491Z,99.67
2023-02-28T04:44:32.738Z,99.28
2023-02-28T04:46:59.462Z,99.89
2023-02-28T04:49:26.415Z,99.48
2023-02-28T04:51:53.937Z,99.57
2023-02-28T04:54:20.967Z,99.84
2023-02-28T04:56:49.565Z,99.66
2023-02-28T04:59:16.320Z,99.61
2023-02-28T05:01:47.956Z,98.57
2023-02-28T05:04:15.045Z,100.00
2023-02-28T05:06:41.832Z,99.86
2023-02-28T05:09:08.573Z,99.96
2023-02-28T05:11:36.254Z,99.74
2023-02-28T05:14:11.370Z,99.50
2023-02-28T05:16:38.381Z,98.91
2023-02-28T05:19:05.171Z,99.00
2023-02-28T05:21:49.808Z,98.96
2023-02-28T05:24:16.542Z,99.26
2023-02-28T05:26:44.138Z,98.85
2023-02-28T05:29:11.101Z,99.56
2023-02-28T05:31:39.319Z,99.43
2023-02-28T05:34:06.566Z,98.85
2023-02-28T05:36:34.163Z,99.18
2023-02-28T05:39:00.898Z,99.17
2023-02-28T05:41:28.307Z,99.89
2023-02-28T05:43:55.385Z,99.18
2023-02-28T05:46:22.425Z,99.57
2023-02-28T05:48:49.787Z,98.96
2023-02-28T05:51:16.998Z,98.71
2023-02-28T05:53:43.924Z,98.42
2023-02-28T05:56:10.709Z,98.51
2023-02-28T05:58:37.344Z,98.48
2023-02-28T06:01:32.645Z,98.83
2023-02-28T06:04:04.996Z,98.47
2023-02-28T06:06:31.843Z,98.60
2023-02-28T06:08:58.841Z,98.85
2023-02-28T06:11:28.795Z,99.34
2023-02-28T06:13:57.599Z,98.99
2023-02-28T06:16:25.568Z,99.48
2023-02-28T06:18:53.672Z,99.48
2023-02-28T06:21:20.295Z,99.38
2023-02-28T06:23:46.986Z,98.93
2023-02-28T06:26:13.928Z,99.72
2023-02-28T06:28:41.068Z,99.70
2023-02-28T06:31:10.199Z,99.23
2023-02-28T06:33:38.848Z,99.47
2023-02-28T06:36:06.598Z,99.05
2023-02-28T06:38:34.268Z,99.11
2023-02-28T06:41:02.055Z,99.01
2023-02-28T06:43:30.890Z,99.49
2023-02-28T06:45:59.740Z,99.37
2023-02-28T06:48:27.822Z,99.39
2023-02-28T06:51:06.526Z,99.49
2023-02-28T06:53:33.709Z,100.00
2023-02-28T06:56:00.672Z,99.50
2023-02-28T06:58:27.347Z,99.12
2023-02-28T07:00:54.291Z,99.12
2023-02-28T07:03:21.986Z,99.08
2023-02-28T07:05:48.641Z,99.42
2023-02-28T07:08:15.540Z,99.04
2023-02-28T07:10:42.417Z,99.69
2023-02-28T07:13:10.066Z,99.73
2023-02-28T07:15:41.767Z,100.00
2023-02-28T07:18:10.398Z,100.00
2023-02-28T07:20:37.100Z,100.00
2023-02-28T07:23:03.878Z,99.88
2023-02-28T07:25:30.635Z,99.87
2023-02-28T07:27:57.976Z,100.00
2023-02-28T07:30:24.635Z,100.00
2023-02-28T07:32:51.293Z,100.00
2023-02-28T07:35:18.217Z,98.81
2023-02-28T07:37:44.906Z,98.18
2023-02-28T07:40:12.749Z,97.61
2023-02-28T07:42:40.208Z,96.54
2023-02-28T07:45:07.718Z,96.22
2023-02-28T07:47:34.428Z,94.87
2023-02-28T07:50:01.361Z,94.37
2023-02-28T07:52:28.069Z,91.37
2023-02-28T07:54:54.839Z,87.45
2023-02-28T07:57:21.535Z,87.67
2023-02-28T07:59:48.293Z,85.05
2023-02-28T08:02:16.510Z,83.46
2023-02-28T08:04:43.814Z,83.70
2023-02-28T08:07:14.101Z,82.58
2023-02-28T08:09:41.498Z,82.04
2023-02-28T08:12:09.094Z,78.56
2023-02-28T08:14:36.333Z,77.08
2023-02-28T08:17:03.553Z,72.56
2023-02-28T08:19:30.318Z,72.02
2023-02-28T08:21:57.184Z,68.49
2023-02-28T08:24:24.096Z,66.60
2023-02-28T08:26:50.901Z,66.81
2023-02-28T08:29:17.935Z,66.52
2023-02-28T08:31:44.677Z,64.62
2023-02-28T08:34:14.627Z,64.48
2023-02-28T08:36:41.520Z,62.24
2023-02-28T08:39:08.588Z,62.04
2023-02-28T08:41:35.333Z,61.09
2023-02-28T08:44:02.469Z,61.17
2023-02-28T08:46:29.193Z,59.91
2023-02-28T08:49:00.976Z,59.46
2023-02-28T08:51:28.905Z,57.87
2023-02-28T08:54:00.882Z,56.75
2023-02-28T08:56:29.299Z,55.97
2023-02-28T08:58:57.836Z,55.73
2023-02-28T09:01:29.971Z,55.33
2023-02-28T09:03:57.807Z,54.46
2023-02-28T09:06:27.574Z,54.13
2023-02-28T09:08:59.630Z,53.99
2023-02-28T09:11:27.054Z,54.34
2023-02-28T09:13:53.896Z,54.10
2023-02-28T09:16:20.848Z,53.76
2023-02-28T09:18:47.574Z,53.40
2023-02-28T09:21:16.642Z,53.71
2023-02-28T09:23:45.105Z,53.38
2023-02-28T09:26:21.398Z,53.50
2023-02-28T09:28:48.175Z,51.99
2023-02-28T09:31:24.319Z,51.93
2023-02-28T09:33:54.121Z,51.85
2023-02-28T09:36:23.226Z,51.71
2023-02-28T09:38:52.390Z,51.78
2023-02-28T09:41:24.978Z,51.23
2023-02-28T09:43:57.560Z,50.50
2023-02-28T09:46:43.128Z,49.67
2023-02-28T09:49:18.291Z,49.37
2023-02-28T09:52:02.123Z,49.36
2023-02-28T09:54:30.999Z,48.80
2023-02-28T09:57:05.560Z,49.01
2023-02-28T09:59:44.980Z,49.36
2023-02-28T10:02:32.590Z,49.16
2023-02-28T10:05:06.361Z,49.32
2023-02-28T10:07:58.514Z,48.90
2023-02-28T10:10:38.354Z,48.52
2023-02-28T10:13:26.996Z,48.96
2023-02-28T10:15:59.724Z,48.29
2023-02-28T10:18:37.168Z,48.03
2023-02-28T10:21:04.158Z,49.03
2023-02-28T10:23:36.575Z,48.49
2023-02-28T10:26:17.062Z,48.76
2023-02-28T10:28:44.359Z,50.18
2023-02-28T10:31:20.783Z,50.02
2023-02-28T10:33:49.852Z,49.92
2023-02-28T10:36:19.885Z,50.02
2023-02-28T10:38:48.211Z,49.88
2023-02-28T10:41:17.508Z,50.21
2023-02-28T10:43:48.664Z,50.39
2023-02-28T10:46:27.077Z,51.95
2023-02-28T10:49:13.693Z,50.60
2023-02-28T10:51:42.180Z,50.95
2023-02-28T10:54:19.232Z,51.21
2023-02-28T10:56:46.200Z,51.73
2023-02-28T10:59:15.718Z,50.51
2023-02-28T11:01:46.093Z,49.98
2023-02-28T11:04:33.354Z,49.69
2023-02-28T11:07:03.040Z,50.20
2023-02-28T11:09:31.551Z,49.86
2023-02-28T11:11:58.706Z,49.79
2023-02-28T11:14:28.454Z,49.53
2023-02-28T11:17:00.120Z,49.04
2023-02-28T11:19:34.868Z,47.56
2023-02-28T11:22:03.825Z,50.01
2023-02-28T11:24:43.685Z,46.86
2023-02-28T11:27:51.228Z,47.63
2023-02-28T11:30:30.661Z,47.88
2023-02-28T11:32:57.667Z,47.69
2023-02-28T11:35:27.082Z,48.16
2023-02-28T11:37:53.979Z,48.12
2023-02-28T11:40:31.387Z,48.15
2023-02-28T11:43:07.856Z,48.38
2023-02-28T11:46:00.247Z,48.75
2023-02-28T11:48:35.666Z,48.40
2023-02-28T11:51:14.366Z,49.47
2023-02-28T11:53:52.685Z,48.57
2023-02-28T11:56:37.105Z,48.00
2023-02-28T11:59:09.739Z,48.94
2023-02-28T12:01:54.677Z,49.78
2023-02-28T12:04:46.133Z,50.01
2023-02-28T12:07:28.608Z,49.68
2023-02-28T12:10:17.094Z,49.52
2023-02-28T12:12:43.633Z,49.69
2023-02-28T12:15:19.139Z,48.49
2023-02-28T12:18:06.407Z,47.54
2023-02-28T12:20:45.470Z,47.64
2023-02-28T12:23:49.930Z,47.62
2023-02-28T12:26:25.571Z,47.89
2023-02-28T12:28:58.550Z,48.35
2023-02-28T12:31:28.546Z,47.42
2023-02-28T12:34:02.442Z,47.44
2023-02-28T12:36:29.647Z,49.32
2023-02-28T12:39:07.517Z,47.16
2023-02-28T12:41:55.076Z,48.13
2023-02-28T12:44:29.673Z,49.08
2023-02-28T12:47:01.488Z,48.67
2023-02-28T12:49:42.153Z,49.15
2023-02-28T12:52:12.043Z,48.93
2023-02-28T12:55:08.412Z,46.41
2023-02-28T12:58:01.380Z,48.03
2023-02-28T13:00:36.354Z,46.81
2023-02-28T13:03:02.943Z,48.18
2023-02-28T13:05:38.363Z,45.96
2023-02-28T13:08:28.456Z,45.94
2023-02-28T13:10:55.760Z,45.63
2023-02-28T13:13:33.552Z,45.81
2023-02-28T13:16:05.653Z,46.29
2023-02-28T13:18:45.385Z,48.44
2023-02-28T13:21:30.739Z,45.46
2023-02-28T13:24:01.201Z,46.39
2023-02-28T13:26:37.022Z,45.74
2023-02-28T13:29:16.794Z,46.01
2023-02-28T13:32:07.818Z,46.89
2023-02-28T13:34:58.723Z,45.87
2023-02-28T13:37:25.608Z,45.95
2023-02-28T13:39:55.697Z,46.45
2023-02-28T13:42:31.545Z,47.67
2023-02-28T13:45:04.345Z,47.06
2023-02-28T13:47:40.074Z,45.26
2023-02-28T13:50:39.010Z,45.62
2023-02-28T13:53:14.603Z,47.32
2023-02-28T13:55:50.242Z,46.97
2023-02-28T13:58:47.025Z,47.59
2023-02-28T14:01:29.819Z,45.60
2023-02-28T14:04:33.730Z,46.68
2023-02-28T14:07:01.890Z,46.81
2023-02-28T14:09:32.969Z,47.28
2023-02-28T14:12:38.045Z,48.02
2023-02-28T14:15:25.558Z,46.92
2023-02-28T14:17:57.361Z,47.64
2023-02-28T14:20:27.584Z,45.88
2023-02-28T14:23:07.762Z,46.35
2023-02-28T14:25:48.793Z,46.76
2023-02-28T14:28:33.764Z,46.85
2023-02-28T14:31:10.883Z,47.87
2023-02-28T14:33:59.899Z,47.80
2023-02-28T14:36:42.168Z,48.38
2023-02-28T14:39:15.382Z,47.18
2023-02-28T14:41:44.450Z,46.33
2023-02-28T14:44:28.288Z,47.05
2023-02-28T14:46:57.098Z,46.85
2023-02-28T14:49:31.719Z,47.77
2023-02-28T14:52:13.768Z,47.59
2023-02-28T14:54:41.481Z,47.06
2023-02-28T14:57:22.509Z,46.70
2023-02-28T14:59:58.849Z,47.00
2023-02-28T15:02:27.135Z,47.57
2023-02-28T15:04:56.610Z,47.59
2023-02-28T15:07:29.526Z,47.24
2023-02-28T15:10:14.426Z,47.45
2023-02-28T15:12:42.862Z,47.52
2023-02-28T15:15:19.389Z,47.29
2023-02-28T15:17:51.795Z,47.11
2023-02-28T15:20:20.160Z,47.30
2023-02-28T15:22:52.486Z,46.72
2023-02-28T15:25:22.208Z,47.82
2023-02-28T15:27:55.996Z,47.13
2023-02-28T15:30:28.343Z,47.39
2023-02-28T15:33:19.456Z,48.16
2023-02-28T15:35:46.699Z,48.79
2023-02-28T15:38:27.714Z,48.90
2023-02-28T15:40:59.282Z,49.46
2023-02-28T15:43:37.728Z,49.71
2023-02-28T15:46:10.803Z,48.44
2023-02-28T15:48:53.294Z,47.21
2023-02-28T15:51:32.020Z,46.28
2023-02-28T15:54:02.757Z,46.00
2023-02-28T15:56:32.856Z,45.72
2023-02-28T15:59:19.045Z,45.97
2023-02-28T16:01:46.383Z,45.91
2023-02-28T16:04:22.825Z,46.89
2023-02-28T16:07:06.952Z,47.45
2023-02-28T16:09:35.221Z,49.60
2023-02-28T16:12:04.246Z,50.88
2023-02-28T16:14:32.339Z,51.86
2023-02-28T16:17:09.814Z,51.58
2023-02-28T16:19:36.542Z,51.83
2023-02-28T16:22:03.257Z,51.56
2023-02-28T16:24:30.037Z,51.55
2023-02-28T16:26:58.183Z,51.76
2023-02-28T16:29:30.842Z,51.68
2023-02-28T16:31:58.673Z,52.08
2023-02-28T16:34:26.355Z,52.00
2023-02-28T16:36:53.525Z,52.32
2023-02-28T16:39:23.105Z,51.89
2023-02-28T16:41:51.210Z,51.97
2023-02-28T16:44:35.656Z,52.22
2023-02-28T16:47:03.902Z,53.53
2023-02-28T16:49:31.136Z,53.18
2023-02-28T16:51:57.892Z,53.91
2023-02-28T16:54:24.537Z,53.79
2023-02-28T16:56:51.394Z,53.82
2023-02-28T16:59:23.130Z,54.09
2023-02-28T17:01:50.480Z,53.94
2023-02-28T17:04:17.645Z,53.73
2023-02-28T17:06:44.815Z,53.99
2023-02-28T17:09:26.350Z,53.78
2023-02-28T17:11:57.788Z,54.06
2023-02-28T17:14:24.544Z,53.96
2023-02-28T17:16:51.274Z,53.57
2023-02-28T17:19:18.876Z,54.43
2023-02-28T17:21:46.315Z,54.61
2023-02-28T17:24:16.606Z,54.76
2023-02-28T17:26:46.351Z,55.02
2023-02-28T17:29:18.387Z,55.77
2023-02-28T17:31:45.170Z,55.76
2023-02-28T17:34:12.512Z,55.15
2023-02-28T17:36:39.242Z,55.61
2023-02-28T17:39:12.189Z,55.71
2023-02-28T17:41:38.886Z,55.71
2023-02-28T17:44:05.637Z,56.63
2023-02-28T17:46:33.501Z,56.44
2023-02-28T17:49:01.003Z,56.33
2023-02-28T17:51:27.649Z,56.54
2023-02-28T17:53:54.406Z,56.94
2023-02-28T17:56:26.005Z,57.15
2023-02-28T17:58:54.890Z,57.51
2023-02-28T18:01:22.580Z,57.73
2023-02-28T18:03:49.844Z,58.18
2023-02-28T18:06:23.281Z,58.34
2023-02-28T18:08:52.397Z,58.17
2023-02-28T18:11:21.116Z,58.55
2023-02-28T18:13:50.096Z,58.99
2023-02-28T18:16:17.920Z,59.00
2023-02-28T18:18:44.954Z,59.30
2023-02-28T18:21:15.178Z,59.36
2023-02-28T18:23:47.977Z,59.32
2023-02-28T18:26:16.251Z,59.49
2023-02-28T18:28:44.595Z,60.81
2023-02-28T18:31:18.181Z,60.40
2023-02-28T18:33:48.865Z,60.85
2023-02-28T18:36:16.274Z,61.09
2023-02-28T18:38:43.817Z,61.37
2023-02-28T18:41:10.616Z,61.59
2023-02-28T18:43:40.722Z,62.43
2023-02-28T18:46:11.787Z,63.20
2023-02-28T18:48:39.534Z,63.38
2023-02-28T18:51:11.229Z,62.98
2023-02-28T18:53:39.235Z,63.10
2023-02-28T18:56:07.497Z,64.02
2023-02-28T18:58:34.570Z,64.08
2023-02-28T19:01:03.126Z,63.88
2023-02-28T19:03:30.216Z,64.25
2023-02-28T19:05:58.531Z,65.46
2023-02-28T19:08:25.854Z,66.58
2023-02-28T19:10:53.025Z,67.30
2023-02-28T19:13:20.784Z,67.44
2023-02-28T19:15:48.583Z,69.16
2023-02-28T19:18:15.606Z,69.77
2023-02-28T19:20:42.440Z,70.96
2023-02-28T19:23:11.698Z,70.90
2023-02-28T19:25:42.665Z,70.88
2023-02-28T19:28:09.459Z,71.43
2023-02-28T19:30:36.170Z,71.70
2023-02-28T19:33:02.992Z,72.23
2023-02-28T19:35:29.799Z,73.73
2023-02-28T19:37:58.258Z,74.48
2023-02-28T19:40:25.608Z,74.58
2023-02-28T19:42:52.357Z,75.08
2023-02-28T19:45:19.062Z,75.41
2023-02-28T19:47:45.715Z,76.43
2023-02-28T19:50:20.458Z,76.45
2023-02-28T19:52:49.524Z,77.40
2023-02-28T19:55:17.484Z,76.59
2023-02-28T19:57:44.608Z,76.96
2023-02-28T20:00:14.562Z,77.36
2023-02-28T20:02:43.837Z,77.22
2023-02-28T20:05:13.519Z,77.54
2023-02-28T20:07:40.234Z,77.00
2023-02-28T20:10:07.358Z,77.46
2023-02-28T20:12:34.125Z,77.03
2023-02-28T20:15:00.942Z,77.43
2023-02-28T20:17:29.148Z,76.53
2023-02-28T20:19:55.932Z,76.70
2023-02-28T20:22:22.710Z,76.61
2023-02-28T20:24:49.450Z,76.43
2023-02-28T20:27:16.463Z,77.17
2023-02-28T20:29:43.096Z,76.89
2023-02-28T20:32:09.979Z,77.72
2023-02-28T20:34:36.649Z,77.04
2023-02-28T20:37:03.445Z,77.55
2023-02-28T20:39:30.171Z,77.66
2023-02-28T20:41:56.864Z,77.74
2023-02-28T20:44:23.642Z,77.65
2023-02-28T20:46:51.099Z,77.56
2023-02-28T20:49:17.889Z,77.63
2023-02-28T20:51:44.616Z,77.12
2023-02-28T20:54:11.797Z,77.22
2023-02-28T20:56:38.829Z,76.79
2023-02-28T20:59:05.820Z,75.58
2023-02-28T21:01:33.017Z,75.02
2023-02-28T21:04:02.480Z,74.89
2023-02-28T21:06:31.860Z,75.15
2023-02-28T21:08:59.228Z,74.88
2023-02-28T21:11:29.469Z,74.74
2023-02-28T21:13:59.377Z,73.84
2023-02-28T21:16:27.294Z,74.22
2023-02-28T21:18:55.249Z,74.38
2023-02-28T21:21:24.454Z,74.12
2023-02-28T21:23:52.148Z,73.79
2023-02-28T21:26:22.330Z,74.08
2023-02-28T21:28:54.824Z,73.61
2023-02-28T21:31:24.427Z,73.53
2023-02-28T21:33:52.887Z,73.83
2023-02-28T21:36:22.475Z,74.02
2023-02-28T21:38:51.005Z,74.73
2023-02-28T21:41:21.189Z,76.72
2023-02-28T21:43:48.554Z,77.78
2023-02-28T21:46:17.670Z,77.94
2023-02-28T21:48:44.352Z,78.31
2023-02-28T21:51:13.969Z,78.34
2023-02-28T21:53:42.191Z,78.87
2023-02-28T21:56:30.641Z,78.95
2023-02-28T21:59:00.734Z,79.98
2023-02-28T22:01:40.406Z,79.88
2023-02-28T22:04:10.203Z,80.33
2023-02-28T22:06:39.947Z,79.90
2023-02-28T22:09:08.854Z,80.39
2023-02-28T22:11:36.900Z,81.03
2023-02-28T22:14:03.712Z,81.17
2023-02-28T22:16:44.106Z,81.66
2023-02-28T22:19:17.001Z,81.96
2023-02-28T22:21:44.929Z,81.61
2023-02-28T22:24:11.982Z,82.13
2023-02-28T22:26:38.580Z,82.08
2023-02-28T22:29:05.468Z,82.97
2023-02-28T22:31:35.287Z,83.88
2023-02-28T22:34:08.690Z,83.61
2023-02-28T22:36:36.210Z,83.37
2023-02-28T22:39:04.451Z,83.21
2023-02-28T22:41:31.796Z,83.11
2023-02-28T22:44:00.660Z,82.92
2023-02-28T22:46:29.063Z,82.62
2023-02-28T22:48:57.621Z,82.36
2023-02-28T22:51:25.969Z,82.11
2023-02-28T22:53:54.299Z,82.86
2023-02-28T22:56:22.723Z,82.71
2023-02-28T22:58:55.135Z,83.87
2023-02-28T23:01:24.022Z,83.78
2023-02-28T23:03:51.299Z,84.57
2023-02-28T23:06:20.682Z,85.63
2023-02-28T23:08:47.713Z,84.81
2023-02-28T23:11:22.838Z,84.73
2023-02-28T23:13:59.308Z,85.19
2023-02-28T23:16:35.916Z,85.03
2023-02-28T23:19:05.895Z,84.66
2023-02-28T23:21:32.808Z,84.24
2023-02-28T23:24:02.722Z,84.57
2023-02-28T23:26:31.166Z,84.22
2023-02-28T23:28:58.614Z,84.59
2023-02-28T23:31:25.319Z,84.75
2023-02-28T23:33:52.073Z,85.34
2023-02-28T23:36:18.901Z,85.85
2023-02-28T23:38:47.819Z,86.00
2023-02-28T23:41:15.401Z,86.10
2023-02-28T23:43:42.068Z,86.09
2023-02-28T23:46:10.276Z,86.34
2023-02-28T23:48:37.283Z,86.52
2023-02-28T23:51:09.910Z,86.63
2023-02-28T23:53:38.635Z,86.57
2023-02-28T23:56:06.972Z,86.70
2023-02-28T23:58:33.862Z,86.79
